sensor_id;sensor_type;location;lat;lon;timestamp;P1;durP1;ratioP1;P2;durP2;ratioP2
7607;SDS011;3845;48.120;11.534;2023-05-13T00:01:25;6.23;;;5.57;;
7607;SDS011;3845;48.120;11.534;2023-05-13T00:03:51;6.30;;;5.70;;
7607;SDS011;3845;48.120;11.534;2023-05-13T00:06:16;7.27;;;6.57;;
7607;SDS011;3845;48.120;11.534;2023-05-13T00:08:41;7.27;;;6.57;;
7607;SDS011;3845;48.120;11.534;2023-05-13T00:11:07;6.97;;;6.00;;
7607;SDS011;3845;48.120;11.534;2023-05-13T00:13:32;6.50;;;5.43;;
7607;SDS011;3845;48.120;11.534;2023-05-13T00:15:58;7.20;;;6.50;;
7607;SDS011;3845;48.120;11.534;2023-05-13T00:18:23;6.03;;;4.77;;
7607;SDS011;3845;48.120;11.534;2023-05-13T00:20:48;6.63;;;5.23;;
7607;SDS011;3845;48.120;11.534;2023-05-13T00:23:13;5.63;;;5.13;;
7607;SDS011;3845;48.120;11.534;2023-05-13T00:25:39;7.00;;;6.30;;
7607;SDS011;3845;48.120;11.534;2023-05-13T00:28:06;7.43;;;6.20;;
7607;SDS011;3845;48.120;11.534;2023-05-13T00:30:31;6.67;;;5.97;;
7607;SDS011;3845;48.120;11.534;2023-05-13T00:32:56;7.27;;;6.57;;
7607;SDS011;3845;48.120;11.534;2023-05-13T00:35:22;7.40;;;6.70;;
7607;SDS011;3845;48.120;11.534;2023-05-13T00:37:47;7.83;;;6.77;;
7607;SDS011;3845;48.120;11.534;2023-05-13T00:40:18;6.50;;;5.87;;
7607;SDS011;3845;48.120;11.534;2023-05-13T00:42:44;5.83;;;5.20;;
7607;SDS011;3845;48.120;11.534;2023-05-13T00:45:10;5.40;;;4.90;;
7607;SDS011;3845;48.120;11.534;2023-05-13T00:47:37;7.27;;;6.30;;
7607;SDS011;3845;48.120;11.534;2023-05-13T00:50:03;6.83;;;6.13;;
7607;SDS011;3845;48.120;11.534;2023-05-13T00:52:29;6.67;;;6.07;;
7607;SDS011;3845;48.120;11.534;2023-05-13T00:54:54;7.17;;;6.20;;
7607;SDS011;3845;48.120;11.534;2023-05-13T00:57:19;6.63;;;6.00;;
7607;SDS011;3845;48.120;11.534;2023-05-13T00:59:45;5.63;;;5.13;;
7607;SDS011;3845;48.120;11.534;2023-05-13T01:07:28;8.43;;;7.30;;
7607;SDS011;3845;48.120;11.534;2023-05-13T01:12:44;8.70;;;7.80;;
7607;SDS011;3845;48.120;11.534;2023-05-13T01:15:14;8.50;;;7.23;;
7607;SDS011;3845;48.120;11.534;2023-05-13T01:20:37;8.13;;;7.30;;
7607;SDS011;3845;48.120;11.534;2023-05-13T01:23:06;10.33;;;8.77;;
7607;SDS011;3845;48.120;11.534;2023-05-13T01:25:31;10.30;;;9.17;;
7607;SDS011;3845;48.120;11.534;2023-05-13T01:27:57;8.83;;;7.90;;
7607;SDS011;3845;48.120;11.534;2023-05-13T01:30:22;8.63;;;7.73;;
7607;SDS011;3845;48.120;11.534;2023-05-13T01:32:48;9.27;;;8.03;;
7607;SDS011;3845;48.120;11.534;2023-05-13T01:35:14;10.10;;;8.73;;
7607;SDS011;3845;48.120;11.534;2023-05-13T01:37:40;10.30;;;9.20;;
7607;SDS011;3845;48.120;11.534;2023-05-13T01:40:06;12.20;;;10.90;;
7607;SDS011;3845;48.120;11.534;2023-05-13T01:42:32;9.57;;;8.40;;
7607;SDS011;3845;48.120;11.534;2023-05-13T01:44:58;11.93;;;9.80;;
7607;SDS011;3845;48.120;11.534;2023-05-13T01:47:24;10.47;;;9.13;;
7607;SDS011;3845;48.120;11.534;2023-05-13T01:49:49;11.03;;;9.60;;
7607;SDS011;3845;48.120;11.534;2023-05-13T01:52:14;11.63;;;9.97;;
7607;SDS011;3845;48.120;11.534;2023-05-13T01:54:39;11.67;;;10.00;;
7607;SDS011;3845;48.120;11.534;2023-05-13T01:57:05;11.57;;;10.17;;
7607;SDS011;3845;48.120;11.534;2023-05-13T01:59:30;11.77;;;9.23;;
7607;SDS011;3845;48.120;11.534;2023-05-13T02:01:55;12.00;;;10.00;;
7607;SDS011;3845;48.120;11.534;2023-05-13T02:04:20;10.57;;;9.40;;
7607;SDS011;3845;48.120;11.534;2023-05-13T02:06:46;9.27;;;8.07;;
7607;SDS011;3845;48.120;11.534;2023-05-13T02:09:11;9.67;;;8.47;;
7607;SDS011;3845;48.120;11.534;2023-05-13T02:11:36;11.17;;;9.50;;
7607;SDS011;3845;48.120;11.534;2023-05-13T02:14:02;11.10;;;8.77;;
7607;SDS011;3845;48.120;11.534;2023-05-13T02:16:27;10.30;;;9.20;;
7607;SDS011;3845;48.120;11.534;2023-05-13T02:18:52;9.53;;;8.47;;
7607;SDS011;3845;48.120;11.534;2023-05-13T02:21:18;9.07;;;7.93;;
7607;SDS011;3845;48.120;11.534;2023-05-13T02:23:43;8.87;;;7.57;;
7607;SDS011;3845;48.120;11.534;2023-05-13T02:26:08;8.13;;;7.30;;
7607;SDS011;3845;48.120;11.534;2023-05-13T02:28:33;9.83;;;7.87;;
7607;SDS011;3845;48.120;11.534;2023-05-13T02:30:59;12.10;;;9.63;;
7607;SDS011;3845;48.120;11.534;2023-05-13T02:33:24;10.73;;;9.60;;
7607;SDS011;3845;48.120;11.534;2023-05-13T02:35:49;11.33;;;10.00;;
7607;SDS011;3845;48.120;11.534;2023-05-13T02:38:15;10.73;;;8.30;;
7607;SDS011;3845;48.120;11.534;2023-05-13T02:40:40;9.47;;;8.57;;
7607;SDS011;3845;48.120;11.534;2023-05-13T02:43:06;8.57;;;7.63;;
7607;SDS011;3845;48.120;11.534;2023-05-13T02:45:31;8.93;;;7.13;;
7607;SDS011;3845;48.120;11.534;2023-05-13T02:47:57;10.13;;;7.80;;
7607;SDS011;3845;48.120;11.534;2023-05-13T02:50:22;9.03;;;8.13;;
7607;SDS011;3845;48.120;11.534;2023-05-13T02:52:47;8.60;;;7.70;;
7607;SDS011;3845;48.120;11.534;2023-05-13T02:55:13;9.23;;;8.27;;
7607;SDS011;3845;48.120;11.534;2023-05-13T02:57:38;10.23;;;8.83;;
7607;SDS011;3845;48.120;11.534;2023-05-13T03:00:04;9.10;;;8.10;;
7607;SDS011;3845;48.120;11.534;2023-05-13T03:02:30;11.03;;;7.80;;
7607;SDS011;3845;48.120;11.534;2023-05-13T03:04:56;9.17;;;8.23;;
7607;SDS011;3845;48.120;11.534;2023-05-13T03:07:22;9.83;;;8.83;;
7607;SDS011;3845;48.120;11.534;2023-05-13T03:09:48;10.57;;;8.60;;
7607;SDS011;3845;48.120;11.534;2023-05-13T03:12:13;10.10;;;9.10;;
7607;SDS011;3845;48.120;11.534;2023-05-13T03:14:38;11.03;;;9.17;;
7607;SDS011;3845;48.120;11.534;2023-05-13T03:17:07;9.50;;;8.50;;
7607;SDS011;3845;48.120;11.534;2023-05-13T03:19:33;9.70;;;8.57;;
7607;SDS011;3845;48.120;11.534;2023-05-13T03:21:59;10.17;;;9.17;;
7607;SDS011;3845;48.120;11.534;2023-05-13T03:24:24;10.77;;;9.60;;
7607;SDS011;3845;48.120;11.534;2023-05-13T03:26:50;10.27;;;8.87;;
7607;SDS011;3845;48.120;11.534;2023-05-13T03:29:15;11.53;;;9.83;;
7607;SDS011;3845;48.120;11.534;2023-05-13T03:31:40;11.33;;;10.10;;
7607;SDS011;3845;48.120;11.534;2023-05-13T03:34:06;13.53;;;11.57;;
7607;SDS011;3845;48.120;11.534;2023-05-13T03:36:31;12.07;;;10.33;;
7607;SDS011;3845;48.120;11.534;2023-05-13T03:38:56;9.80;;;8.80;;
7607;SDS011;3845;48.120;11.534;2023-05-13T03:41:21;8.80;;;7.87;;
7607;SDS011;3845;48.120;11.534;2023-05-13T03:43:47;8.07;;;7.27;;
7607;SDS011;3845;48.120;11.534;2023-05-13T03:46:12;8.20;;;7.20;;
7607;SDS011;3845;48.120;11.534;2023-05-13T03:48:37;8.37;;;7.03;;
7607;SDS011;3845;48.120;11.534;2023-05-13T03:51:02;7.57;;;6.77;;
7607;SDS011;3845;48.120;11.534;2023-05-13T03:53:28;9.30;;;8.37;;
7607;SDS011;3845;48.120;11.534;2023-05-13T03:55:53;8.70;;;7.67;;
7607;SDS011;3845;48.120;11.534;2023-05-13T03:58:18;9.33;;;8.07;;
7607;SDS011;3845;48.120;11.534;2023-05-13T04:00:46;8.37;;;7.47;;
7607;SDS011;3845;48.120;11.534;2023-05-13T04:03:12;9.47;;;7.97;;
7607;SDS011;3845;48.120;11.534;2023-05-13T04:05:41;9.87;;;8.67;;
7607;SDS011;3845;48.120;11.534;2023-05-13T04:08:07;9.47;;;7.73;;
7607;SDS011;3845;48.120;11.534;2023-05-13T04:10:32;9.67;;;7.63;;
7607;SDS011;3845;48.120;11.534;2023-05-13T04:12:57;10.23;;;9.13;;
7607;SDS011;3845;48.120;11.534;2023-05-13T04:15:23;13.03;;;9.33;;
7607;SDS011;3845;48.120;11.534;2023-05-13T04:17:48;11.93;;;10.37;;
7607;SDS011;3845;48.120;11.534;2023-05-13T04:20:13;9.50;;;8.47;;
7607;SDS011;3845;48.120;11.534;2023-05-13T04:22:39;10.97;;;9.37;;
7607;SDS011;3845;48.120;11.534;2023-05-13T04:25:04;10.60;;;9.50;;
7607;SDS011;3845;48.120;11.534;2023-05-13T04:27:29;11.40;;;10.20;;
7607;SDS011;3845;48.120;11.534;2023-05-13T04:29:55;10.27;;;9.23;;
7607;SDS011;3845;48.120;11.534;2023-05-13T04:32:21;12.37;;;9.90;;
7607;SDS011;3845;48.120;11.534;2023-05-13T04:34:50;10.93;;;9.83;;
7607;SDS011;3845;48.120;11.534;2023-05-13T04:37:16;10.57;;;9.33;;
7607;SDS011;3845;48.120;11.534;2023-05-13T04:39:42;10.63;;;9.53;;
7607;SDS011;3845;48.120;11.534;2023-05-13T04:42:09;10.63;;;9.63;;
7607;SDS011;3845;48.120;11.534;2023-05-13T04:44:35;10.57;;;9.47;;
7607;SDS011;3845;48.120;11.534;2023-05-13T04:47:00;8.93;;;8.03;;
7607;SDS011;3845;48.120;11.534;2023-05-13T04:49:25;9.37;;;8.43;;
7607;SDS011;3845;48.120;11.534;2023-05-13T04:51:50;10.47;;;9.47;;
7607;SDS011;3845;48.120;11.534;2023-05-13T04:54:17;9.30;;;8.40;;
7607;SDS011;3845;48.120;11.534;2023-05-13T04:56:42;8.93;;;8.00;;
7607;SDS011;3845;48.120;11.534;2023-05-13T04:59:08;8.50;;;7.60;;
7607;SDS011;3845;48.120;11.534;2023-05-13T05:01:33;9.67;;;8.17;;
7607;SDS011;3845;48.120;11.534;2023-05-13T05:03:59;8.50;;;7.67;;
7607;SDS011;3845;48.120;11.534;2023-05-13T05:06:24;8.97;;;8.03;;
7607;SDS011;3845;48.120;11.534;2023-05-13T05:08:49;10.47;;;9.03;;
7607;SDS011;3845;48.120;11.534;2023-05-13T05:11:15;10.40;;;8.53;;
7607;SDS011;3845;48.120;11.534;2023-05-13T05:13:40;9.53;;;8.53;;
7607;SDS011;3845;48.120;11.534;2023-05-13T05:16:05;11.13;;;10.03;;
7607;SDS011;3845;48.120;11.534;2023-05-13T05:18:31;15.10;;;12.43;;
7607;SDS011;3845;48.120;11.534;2023-05-13T05:20:56;11.03;;;9.83;;
7607;SDS011;3845;48.120;11.534;2023-05-13T05:23:21;9.87;;;8.83;;
7607;SDS011;3845;48.120;11.534;2023-05-13T05:25:47;10.13;;;9.10;;
7607;SDS011;3845;48.120;11.534;2023-05-13T05:28:12;8.83;;;7.93;;
7607;SDS011;3845;48.120;11.534;2023-05-13T05:30:37;9.40;;;8.50;;
7607;SDS011;3845;48.120;11.534;2023-05-13T05:33:06;9.30;;;8.33;;
7607;SDS011;3845;48.120;11.534;2023-05-13T05:35:32;10.10;;;9.10;;
7607;SDS011;3845;48.120;11.534;2023-05-13T05:38:01;11.20;;;9.87;;
7607;SDS011;3845;48.120;11.534;2023-05-13T05:40:31;10.50;;;9.40;;
7607;SDS011;3845;48.120;11.534;2023-05-13T05:42:57;9.20;;;8.30;;
7607;SDS011;3845;48.120;11.534;2023-05-13T05:45:22;11.53;;;10.27;;
7607;SDS011;3845;48.120;11.534;2023-05-13T05:47:47;8.37;;;7.50;;
7607;SDS011;3845;48.120;11.534;2023-05-13T05:50:13;9.40;;;8.40;;
7607;SDS011;3845;48.120;11.534;2023-05-13T05:52:38;9.03;;;7.50;;
7607;SDS011;3845;48.120;11.534;2023-05-13T05:55:03;12.37;;;9.20;;
7607;SDS011;3845;48.120;11.534;2023-05-13T05:57:31;9.23;;;8.23;;
7607;SDS011;3845;48.120;11.534;2023-05-13T05:59:56;11.10;;;9.93;;
7607;SDS011;3845;48.120;11.534;2023-05-13T06:02:21;11.67;;;10.47;;
7607;SDS011;3845;48.120;11.534;2023-05-13T06:04:47;10.23;;;9.20;;
7607;SDS011;3845;48.120;11.534;2023-05-13T06:07:12;11.27;;;9.93;;
7607;SDS011;3845;48.120;11.534;2023-05-13T06:09:37;9.37;;;8.40;;
7607;SDS011;3845;48.120;11.534;2023-05-13T06:12:02;8.43;;;7.30;;
7607;SDS011;3845;48.120;11.534;2023-05-13T06:14:28;9.33;;;8.20;;
7607;SDS011;3845;48.120;11.534;2023-05-13T06:16:53;9.63;;;8.63;;
7607;SDS011;3845;48.120;11.534;2023-05-13T06:19:18;9.13;;;8.23;;
7607;SDS011;3845;48.120;11.534;2023-05-13T06:21:44;10.40;;;9.30;;
7607;SDS011;3845;48.120;11.534;2023-05-13T06:24:09;9.90;;;8.37;;
7607;SDS011;3845;48.120;11.534;2023-05-13T06:26:34;8.90;;;7.67;;
7607;SDS011;3845;48.120;11.534;2023-05-13T06:29:00;8.20;;;7.10;;
7607;SDS011;3845;48.120;11.534;2023-05-13T06:31:25;7.83;;;6.70;;
7607;SDS011;3845;48.120;11.534;2023-05-13T06:33:51;7.23;;;6.53;;
7607;SDS011;3845;48.120;11.534;2023-05-13T06:36:16;7.43;;;6.63;;
7607;SDS011;3845;48.120;11.534;2023-05-13T06:38:41;11.10;;;8.27;;
7607;SDS011;3845;48.120;11.534;2023-05-13T06:41:06;8.93;;;7.80;;
7607;SDS011;3845;48.120;11.534;2023-05-13T06:43:32;8.77;;;7.53;;
7607;SDS011;3845;48.120;11.534;2023-05-13T06:45:57;8.30;;;7.27;;
7607;SDS011;3845;48.120;11.534;2023-05-13T06:48:23;7.33;;;6.27;;
7607;SDS011;3845;48.120;11.534;2023-05-13T06:50:48;7.10;;;6.40;;
7607;SDS011;3845;48.120;11.534;2023-05-13T06:53:13;8.53;;;6.97;;
7607;SDS011;3845;48.120;11.534;2023-05-13T06:55:39;9.20;;;7.60;;
7607;SDS011;3845;48.120;11.534;2023-05-13T06:58:08;8.87;;;7.90;;
7607;SDS011;3845;48.120;11.534;2023-05-13T07:00:37;8.50;;;7.50;;
7607;SDS011;3845;48.120;11.534;2023-05-13T07:03:04;7.73;;;6.87;;
7607;SDS011;3845;48.120;11.534;2023-05-13T07:05:31;8.57;;;7.60;;
7607;SDS011;3845;48.120;11.534;2023-05-13T07:07:56;10.30;;;9.10;;
7607;SDS011;3845;48.120;11.534;2023-05-13T07:10:22;10.43;;;8.70;;
7607;SDS011;3845;48.120;11.534;2023-05-13T07:12:47;11.13;;;9.90;;
7607;SDS011;3845;48.120;11.534;2023-05-13T07:15:12;9.07;;;8.17;;
7607;SDS011;3845;48.120;11.534;2023-05-13T07:17:38;9.07;;;8.03;;
7607;SDS011;3845;48.120;11.534;2023-05-13T07:20:03;10.40;;;9.27;;
7607;SDS011;3845;48.120;11.534;2023-05-13T07:22:29;10.40;;;8.77;;
7607;SDS011;3845;48.120;11.534;2023-05-13T07:24:55;9.70;;;8.60;;
7607;SDS011;3845;48.120;11.534;2023-05-13T07:27:20;8.57;;;7.27;;
7607;SDS011;3845;48.120;11.534;2023-05-13T07:29:45;9.57;;;7.37;;
7607;SDS011;3845;48.120;11.534;2023-05-13T07:32:11;9.23;;;7.77;;
7607;SDS011;3845;48.120;11.534;2023-05-13T07:34:36;8.00;;;7.20;;
7607;SDS011;3845;48.120;11.534;2023-05-13T07:37:01;8.07;;;6.90;;
7607;SDS011;3845;48.120;11.534;2023-05-13T07:39:28;9.10;;;7.33;;
7607;SDS011;3845;48.120;11.534;2023-05-13T07:41:53;9.47;;;7.20;;
7607;SDS011;3845;48.120;11.534;2023-05-13T07:44:19;10.10;;;8.37;;
7607;SDS011;3845;48.120;11.534;2023-05-13T07:46:44;9.57;;;8.57;;
7607;SDS011;3845;48.120;11.534;2023-05-13T07:49:09;9.80;;;8.30;;
7607;SDS011;3845;48.120;11.534;2023-05-13T07:51:34;9.27;;;8.23;;
7607;SDS011;3845;48.120;11.534;2023-05-13T07:54:00;11.07;;;9.50;;
7607;SDS011;3845;48.120;11.534;2023-05-13T07:56:25;12.23;;;9.70;;
7607;SDS011;3845;48.120;11.534;2023-05-13T07:58:50;11.43;;;9.60;;
7607;SDS011;3845;48.120;11.534;2023-05-13T08:01:15;10.37;;;9.00;;
7607;SDS011;3845;48.120;11.534;2023-05-13T08:03:41;9.87;;;8.60;;
7607;SDS011;3845;48.120;11.534;2023-05-13T08:06:06;9.90;;;8.90;;
7607;SDS011;3845;48.120;11.534;2023-05-13T08:08:31;12.07;;;9.60;;
7607;SDS011;3845;48.120;11.534;2023-05-13T08:10:57;10.63;;;9.40;;
7607;SDS011;3845;48.120;11.534;2023-05-13T08:13:22;11.80;;;10.53;;
7607;SDS011;3845;48.120;11.534;2023-05-13T08:15:48;10.70;;;9.40;;
7607;SDS011;3845;48.120;11.534;2023-05-13T08:18:13;9.90;;;8.83;;
7607;SDS011;3845;48.120;11.534;2023-05-13T08:20:39;10.60;;;8.43;;
7607;SDS011;3845;48.120;11.534;2023-05-13T08:23:04;9.37;;;8.07;;
7607;SDS011;3845;48.120;11.534;2023-05-13T08:25:30;9.30;;;8.40;;
7607;SDS011;3845;48.120;11.534;2023-05-13T08:27:56;10.00;;;8.17;;
7607;SDS011;3845;48.120;11.534;2023-05-13T08:30:21;9.70;;;7.70;;
7607;SDS011;3845;48.120;11.534;2023-05-13T08:32:46;8.50;;;7.60;;
7607;SDS011;3845;48.120;11.534;2023-05-13T08:35:12;8.10;;;7.30;;
7607;SDS011;3845;48.120;11.534;2023-05-13T08:37:37;8.87;;;7.37;;
7607;SDS011;3845;48.120;11.534;2023-05-13T08:40:03;7.90;;;7.10;;
7607;SDS011;3845;48.120;11.534;2023-05-13T08:42:29;10.43;;;8.60;;
7607;SDS011;3845;48.120;11.534;2023-05-13T08:44:56;8.63;;;7.60;;
7607;SDS011;3845;48.120;11.534;2023-05-13T08:47:34;7.90;;;6.70;;
7607;SDS011;3845;48.120;11.534;2023-05-13T08:50:12;7.17;;;6.23;;
7607;SDS011;3845;48.120;11.534;2023-05-13T08:52:38;8.83;;;7.93;;
7607;SDS011;3845;48.120;11.534;2023-05-13T08:55:03;8.77;;;7.87;;
7607;SDS011;3845;48.120;11.534;2023-05-13T08:57:29;8.43;;;7.50;;
7607;SDS011;3845;48.120;11.534;2023-05-13T08:59:54;8.23;;;7.23;;
7607;SDS011;3845;48.120;11.534;2023-05-13T09:02:19;9.80;;;8.70;;
7607;SDS011;3845;48.120;11.534;2023-05-13T09:04:45;12.87;;;11.53;;
7607;SDS011;3845;48.120;11.534;2023-05-13T09:07:15;10.90;;;9.70;;
7607;SDS011;3845;48.120;11.534;2023-05-13T09:09:41;9.90;;;8.90;;
7607;SDS011;3845;48.120;11.534;2023-05-13T09:12:06;12.07;;;10.40;;
7607;SDS011;3845;48.120;11.534;2023-05-13T09:14:32;11.17;;;9.97;;
7607;SDS011;3845;48.120;11.534;2023-05-13T09:16:57;12.80;;;11.50;;
7607;SDS011;3845;48.120;11.534;2023-05-13T09:19:23;10.53;;;9.40;;
7607;SDS011;3845;48.120;11.534;2023-05-13T09:21:49;10.37;;;9.27;;
7607;SDS011;3845;48.120;11.534;2023-05-13T09:24:15;9.27;;;8.27;;
7607;SDS011;3845;48.120;11.534;2023-05-13T09:26:45;11.53;;;9.87;;
7607;SDS011;3845;48.120;11.534;2023-05-13T09:31:45;9.97;;;8.97;;
7607;SDS011;3845;48.120;11.534;2023-05-13T09:34:23;9.53;;;8.63;;
7607;SDS011;3845;48.120;11.534;2023-05-13T09:36:59;9.37;;;8.37;;
7607;SDS011;3845;48.120;11.534;2023-05-13T09:39:26;11.90;;;10.70;;
7607;SDS011;3845;48.120;11.534;2023-05-13T09:41:52;9.87;;;8.30;;
7607;SDS011;3845;48.120;11.534;2023-05-13T09:44:17;10.33;;;8.97;;
7607;SDS011;3845;48.120;11.534;2023-05-13T09:46:43;9.70;;;8.70;;
7607;SDS011;3845;48.120;11.534;2023-05-13T09:49:08;10.93;;;9.37;;
7607;SDS011;3845;48.120;11.534;2023-05-13T09:51:34;9.37;;;8.40;;
7607;SDS011;3845;48.120;11.534;2023-05-13T09:54:05;8.97;;;8.07;;
7607;SDS011;3845;48.120;11.534;2023-05-13T09:56:31;10.30;;;9.20;;
7607;SDS011;3845;48.120;11.534;2023-05-13T09:58:58;10.83;;;9.13;;
7607;SDS011;3845;48.120;11.534;2023-05-13T10:01:25;11.17;;;9.97;;
7607;SDS011;3845;48.120;11.534;2023-05-13T10:03:51;8.87;;;8.00;;
7607;SDS011;3845;48.120;11.534;2023-05-13T10:06:17;9.40;;;8.50;;
7607;SDS011;3845;48.120;11.534;2023-05-13T10:08:46;9.30;;;8.30;;
7607;SDS011;3845;48.120;11.534;2023-05-13T10:11:15;9.80;;;8.80;;
7607;SDS011;3845;48.120;11.534;2023-05-13T10:13:41;11.70;;;9.27;;
7607;SDS011;3845;48.120;11.534;2023-05-13T10:16:07;8.73;;;7.90;;
7607;SDS011;3845;48.120;11.534;2023-05-13T10:18:33;7.63;;;6.93;;
7607;SDS011;3845;48.120;11.534;2023-05-13T10:20:58;10.23;;;9.00;;
7607;SDS011;3845;48.120;11.534;2023-05-13T10:23:24;9.30;;;8.27;;
7607;SDS011;3845;48.120;11.534;2023-05-13T10:25:50;9.73;;;8.20;;
7607;SDS011;3845;48.120;11.534;2023-05-13T10:28:17;9.07;;;7.50;;
7607;SDS011;3845;48.120;11.534;2023-05-13T10:30:42;7.60;;;6.90;;
7607;SDS011;3845;48.120;11.534;2023-05-13T10:33:08;10.10;;;8.20;;
7607;SDS011;3845;48.120;11.534;2023-05-13T10:35:35;8.67;;;7.77;;
7607;SDS011;3845;48.120;11.534;2023-05-13T10:40:30;8.87;;;7.97;;
7607;SDS011;3845;48.120;11.534;2023-05-13T10:45:36;7.30;;;6.60;;
7607;SDS011;3845;48.120;11.534;2023-05-13T10:48:05;6.70;;;6.00;;
7607;SDS011;3845;48.120;11.534;2023-05-13T10:50:31;7.80;;;7.00;;
7607;SDS011;3845;48.120;11.534;2023-05-13T10:53:00;7.03;;;6.33;;
7607;SDS011;3845;48.120;11.534;2023-05-13T10:55:27;6.73;;;6.03;;
7607;SDS011;3845;48.120;11.534;2023-05-13T11:00:40;7.13;;;5.63;;
7607;SDS011;3845;48.120;11.534;2023-05-13T11:03:13;5.87;;;5.27;;
7607;SDS011;3845;48.120;11.534;2023-05-13T11:05:43;7.70;;;6.93;;
7607;SDS011;3845;48.120;11.534;2023-05-13T11:08:11;7.37;;;6.60;;
7607;SDS011;3845;48.120;11.534;2023-05-13T11:10:36;6.53;;;5.93;;
7607;SDS011;3845;48.120;11.534;2023-05-13T11:15:42;5.27;;;4.77;;
7607;SDS011;3845;48.120;11.534;2023-05-13T11:18:17;7.17;;;6.33;;
7607;SDS011;3845;48.120;11.534;2023-05-13T11:20:45;6.70;;;6.10;;
7607;SDS011;3845;48.120;11.534;2023-05-13T11:23:16;6.70;;;6.10;;
7607;SDS011;3845;48.120;11.534;2023-05-13T11:25:43;6.30;;;5.10;;
7607;SDS011;3845;48.120;11.534;2023-05-13T11:28:12;5.87;;;5.30;;
7607;SDS011;3845;48.120;11.534;2023-05-13T11:30:38;5.60;;;4.97;;
7607;SDS011;3845;48.120;11.534;2023-05-13T11:33:04;6.63;;;5.50;;
7607;SDS011;3845;48.120;11.534;2023-05-13T11:35:36;5.10;;;4.60;;
7607;SDS011;3845;48.120;11.534;2023-05-13T11:38:01;4.50;;;4.10;;
7607;SDS011;3845;48.120;11.534;2023-05-13T11:42:57;4.70;;;4.27;;
7607;SDS011;3845;48.120;11.534;2023-05-13T11:45:23;5.53;;;5.03;;
7607;SDS011;3845;48.120;11.534;2023-05-13T11:47:49;6.63;;;5.37;;
7607;SDS011;3845;48.120;11.534;2023-05-13T11:50:21;5.83;;;5.33;;
7607;SDS011;3845;48.120;11.534;2023-05-13T11:52:53;5.90;;;5.00;;
7607;SDS011;3845;48.120;11.534;2023-05-13T11:55:38;5.00;;;4.50;;
7607;SDS011;3845;48.120;11.534;2023-05-13T11:58:03;4.90;;;4.40;;
7607;SDS011;3845;48.120;11.534;2023-05-13T12:00:32;4.40;;;4.00;;
7607;SDS011;3845;48.120;11.534;2023-05-13T12:02:58;4.07;;;3.67;;
7607;SDS011;3845;48.120;11.534;2023-05-13T12:05:25;4.00;;;3.70;;
7607;SDS011;3845;48.120;11.534;2023-05-13T12:07:51;4.33;;;3.93;;
7607;SDS011;3845;48.120;11.534;2023-05-13T12:10:20;3.90;;;3.50;;
7607;SDS011;3845;48.120;11.534;2023-05-13T12:12:45;3.50;;;3.20;;
7607;SDS011;3845;48.120;11.534;2023-05-13T12:15:17;4.00;;;3.60;;
7607;SDS011;3845;48.120;11.534;2023-05-13T12:17:44;3.97;;;3.67;;
7607;SDS011;3845;48.120;11.534;2023-05-13T12:30:38;3.40;;;3.10;;
7607;SDS011;3845;48.120;11.534;2023-05-13T12:33:05;3.03;;;2.73;;
7607;SDS011;3845;48.120;11.534;2023-05-13T12:35:37;3.60;;;3.30;;
7607;SDS011;3845;48.120;11.534;2023-05-13T12:38:02;6.53;;;4.17;;
7607;SDS011;3845;48.120;11.534;2023-05-13T12:40:28;4.03;;;3.63;;
7607;SDS011;3845;48.120;11.534;2023-05-13T12:42:57;3.20;;;2.90;;
7607;SDS011;3845;48.120;11.534;2023-05-13T12:45:29;3.60;;;3.30;;
7607;SDS011;3845;48.120;11.534;2023-05-13T12:47:55;4.70;;;3.50;;
7607;SDS011;3845;48.120;11.534;2023-05-13T12:50:21;3.07;;;2.70;;
7607;SDS011;3845;48.120;11.534;2023-05-13T12:52:47;3.60;;;3.27;;
7607;SDS011;3845;48.120;11.534;2023-05-13T12:55:12;3.90;;;3.47;;
7607;SDS011;3845;48.120;11.534;2023-05-13T12:57:39;3.50;;;3.00;;
7607;SDS011;3845;48.120;11.534;2023-05-13T13:00:06;3.40;;;2.90;;
7607;SDS011;3845;48.120;11.534;2023-05-13T13:02:31;2.80;;;2.60;;
7607;SDS011;3845;48.120;11.534;2023-05-13T13:04:57;3.47;;;3.13;;
7607;SDS011;3845;48.120;11.534;2023-05-13T13:07:22;3.30;;;3.00;;
7607;SDS011;3845;48.120;11.534;2023-05-13T13:09:48;2.90;;;2.70;;
7607;SDS011;3845;48.120;11.534;2023-05-13T13:12:13;3.00;;;2.70;;
7607;SDS011;3845;48.120;11.534;2023-05-13T13:14:38;2.63;;;2.43;;
7607;SDS011;3845;48.120;11.534;2023-05-13T13:17:03;2.83;;;2.63;;
7607;SDS011;3845;48.120;11.534;2023-05-13T13:19:29;3.50;;;3.20;;
7607;SDS011;3845;48.120;11.534;2023-05-13T13:21:55;3.30;;;3.00;;
7607;SDS011;3845;48.120;11.534;2023-05-13T13:24:20;5.57;;;3.83;;
7607;SDS011;3845;48.120;11.534;2023-05-13T13:26:45;3.50;;;3.20;;
7607;SDS011;3845;48.120;11.534;2023-05-13T13:29:10;3.70;;;3.40;;
7607;SDS011;3845;48.120;11.534;2023-05-13T13:31:36;3.30;;;3.00;;
7607;SDS011;3845;48.120;11.534;2023-05-13T13:34:01;3.17;;;2.87;;
7607;SDS011;3845;48.120;11.534;2023-05-13T13:36:28;3.07;;;2.87;;
7607;SDS011;3845;48.120;11.534;2023-05-13T13:38:55;3.10;;;2.70;;
7607;SDS011;3845;48.120;11.534;2023-05-13T13:41:21;3.00;;;2.70;;
7607;SDS011;3845;48.120;11.534;2023-05-13T13:43:49;2.73;;;2.53;;
7607;SDS011;3845;48.120;11.534;2023-05-13T13:46:14;3.20;;;2.90;;
7607;SDS011;3845;48.120;11.534;2023-05-13T13:48:40;3.30;;;3.00;;
7607;SDS011;3845;48.120;11.534;2023-05-13T13:51:05;2.93;;;2.73;;
7607;SDS011;3845;48.120;11.534;2023-05-13T13:53:30;2.70;;;2.50;;
7607;SDS011;3845;48.120;11.534;2023-05-13T13:55:55;4.83;;;2.93;;
7607;SDS011;3845;48.120;11.534;2023-05-13T13:58:21;3.13;;;2.80;;
7607;SDS011;3845;48.120;11.534;2023-05-13T14:00:46;2.60;;;2.40;;
7607;SDS011;3845;48.120;11.534;2023-05-13T14:03:11;2.67;;;2.47;;
7607;SDS011;3845;48.120;11.534;2023-05-13T14:05:37;3.00;;;2.80;;
7607;SDS011;3845;48.120;11.534;2023-05-13T14:08:02;2.63;;;2.43;;
7607;SDS011;3845;48.120;11.534;2023-05-13T14:10:27;3.30;;;3.00;;
7607;SDS011;3845;48.120;11.534;2023-05-13T14:12:53;3.57;;;2.83;;
7607;SDS011;3845;48.120;11.534;2023-05-13T14:15:18;3.87;;;2.90;;
7607;SDS011;3845;48.120;11.534;2023-05-13T14:17:43;3.77;;;3.40;;
7607;SDS011;3845;48.120;11.534;2023-05-13T14:20:10;3.33;;;3.03;;
7607;SDS011;3845;48.120;11.534;2023-05-13T14:22:36;3.00;;;2.80;;
7607;SDS011;3845;48.120;11.534;2023-05-13T14:25:01;3.73;;;3.43;;
7607;SDS011;3845;48.120;11.534;2023-05-13T14:27:27;2.87;;;2.67;;
7607;SDS011;3845;48.120;11.534;2023-05-13T14:29:52;3.10;;;2.80;;
7607;SDS011;3845;48.120;11.534;2023-05-13T14:32:18;3.70;;;3.40;;
7607;SDS011;3845;48.120;11.534;2023-05-13T14:34:43;3.20;;;2.90;;
7607;SDS011;3845;48.120;11.534;2023-05-13T14:37:08;3.27;;;2.97;;
7607;SDS011;3845;48.120;11.534;2023-05-13T14:39:34;3.50;;;3.20;;
7607;SDS011;3845;48.120;11.534;2023-05-13T14:41:59;3.50;;;3.20;;
7607;SDS011;3845;48.120;11.534;2023-05-13T14:44:25;3.67;;;3.37;;
7607;SDS011;3845;48.120;11.534;2023-05-13T14:46:50;3.00;;;2.70;;
7607;SDS011;3845;48.120;11.534;2023-05-13T14:49:15;3.10;;;2.80;;
7607;SDS011;3845;48.120;11.534;2023-05-13T14:51:41;2.80;;;2.60;;
7607;SDS011;3845;48.120;11.534;2023-05-13T14:54:06;4.20;;;3.80;;
7607;SDS011;3845;48.120;11.534;2023-05-13T14:56:31;5.73;;;4.50;;
7607;SDS011;3845;48.120;11.534;2023-05-13T14:58:56;4.93;;;3.73;;
7607;SDS011;3845;48.120;11.534;2023-05-13T15:01:22;3.70;;;3.20;;
7607;SDS011;3845;48.120;11.534;2023-05-13T15:03:47;4.77;;;4.37;;
7607;SDS011;3845;48.120;11.534;2023-05-13T15:06:12;3.40;;;3.10;;
7607;SDS011;3845;48.120;11.534;2023-05-13T15:08:38;3.30;;;2.90;;
7607;SDS011;3845;48.120;11.534;2023-05-13T15:11:03;3.20;;;2.90;;
7607;SDS011;3845;48.120;11.534;2023-05-13T15:13:29;4.13;;;3.70;;
7607;SDS011;3845;48.120;11.534;2023-05-13T15:15:59;4.27;;;3.87;;
7607;SDS011;3845;48.120;11.534;2023-05-13T15:18:25;3.40;;;3.10;;
7607;SDS011;3845;48.120;11.534;2023-05-13T15:20:50;3.50;;;3.20;;
7607;SDS011;3845;48.120;11.534;2023-05-13T15:23:16;4.97;;;3.10;;
7607;SDS011;3845;48.120;11.534;2023-05-13T15:25:41;3.00;;;2.70;;
7607;SDS011;3845;48.120;11.534;2023-05-13T15:28:07;4.43;;;3.23;;